sensor_id;sensor_type;location;lat;lon;timestamp;pressure;altitude;pressure_sealevel;temperature;humidity
34979;BME280;21185;50.978;13.720;2023-11-18T00:00:10;98792.53;;;5.34;80.06
34979;BME280;21185;50.978;13.720;2023-11-18T00:05:14;98793.00;;;5.28;79.77
34979;BME280;21185;50.978;13.720;2023-11-18T00:10:17;98804.34;;;5.25;79.82
34979;BME280;21185;50.978;13.720;2023-11-18T00:15:19;98807.28;;;5.20;79.67
34979;BME280;21185;50.978;13.720;2023-11-18T00:20:22;98814.19;;;5.20;79.63
34979;BME280;21185;50.978;13.720;2023-11-18T00:25:26;98821.91;;;5.20;79.52
34979;BME280;21185;50.978;13.720;2023-11-18T00:30:28;98833.16;;;5.19;79.73
34979;BME280;21185;50.978;13.720;2023-11-18T00:35:31;98837.34;;;5.20;79.64
34979;BME280;21185;50.978;13.720;2023-11-18T00:40:35;98848.44;;;5.20;79.70
34979;BME280;21185;50.978;13.720;2023-11-18T00:45:37;98856.03;;;5.22;79.63
34979;BME280;21185;50.978;13.720;2023-11-18T00:50:39;98868.78;;;5.24;79.58
34979;BME280;21185;50.978;13.720;2023-11-18T00:55:42;98858.50;;;5.24;79.86
34979;BME280;21185;50.978;13.720;2023-11-18T01:00:44;98874.16;;;5.20;79.74
34979;BME280;21185;50.978;13.720;2023-11-18T01:05:46;98871.16;;;5.15;80.11
34979;BME280;21185;50.978;13.720;2023-11-18T01:10:48;98879.78;;;5.14;80.20
34979;BME280;21185;50.978;13.720;2023-11-18T01:15:51;98880.63;;;5.15;80.12
34979;BME280;21185;50.978;13.720;2023-11-18T01:20:53;98885.88;;;5.13;80.20
34979;BME280;21185;50.978;13.720;2023-11-18T01:25:55;98878.00;;;5.04;80.15
34979;BME280;21185;50.978;13.720;2023-11-18T01:30:59;98884.41;;;4.98;79.90
34979;BME280;21185;50.978;13.720;2023-11-18T01:36:03;98886.63;;;4.92;80.02
34979;BME280;21185;50.978;13.720;2023-11-18T01:41:06;98901.00;;;4.94;80.24
34979;BME280;21185;50.978;13.720;2023-11-18T01:46:09;98891.75;;;4.92;80.35
34979;BME280;21185;50.978;13.720;2023-11-18T01:51:13;98902.28;;;4.88;80.06
34979;BME280;21185;50.978;13.720;2023-11-18T01:56:16;98912.66;;;4.87;79.91
34979;BME280;21185;50.978;13.720;2023-11-18T02:01:19;98904.03;;;4.88;80.22
34979;BME280;21185;50.978;13.720;2023-11-18T02:06:23;98904.03;;;4.88;80.42
34979;BME280;21185;50.978;13.720;2023-11-18T02:11:34;98905.19;;;4.84;80.54
34979;BME280;21185;50.978;13.720;2023-11-18T02:16:44;98925.03;;;4.82;80.31
34979;BME280;21185;50.978;13.720;2023-11-18T02:21:52;98923.63;;;4.78;80.66
34979;BME280;21185;50.978;13.720;2023-11-18T02:26:57;98916.63;;;4.80;80.71
34979;BME280;21185;50.978;13.720;2023-11-18T02:32:37;98921.66;;;4.81;80.64
34979;BME280;21185;50.978;13.720;2023-11-18T02:37:33;98930.28;;;4.80;80.67
34979;BME280;21185;50.978;13.720;2023-11-18T02:42:36;98933.69;;;4.81;80.72
34979;BME280;21185;50.978;13.720;2023-11-18T02:47:40;98922.56;;;4.80;80.72
34979;BME280;21185;50.978;13.720;2023-11-18T02:52:43;98922.69;;;4.79;80.80
34979;BME280;21185;50.978;13.720;2023-11-18T02:57:45;98920.13;;;4.79;80.71
34979;BME280;21185;50.978;13.720;2023-11-18T03:02:51;98925.25;;;4.79;80.77
34979;BME280;21185;50.978;13.720;2023-11-18T03:07:56;98925.25;;;4.79;80.89
34979;BME280;21185;50.978;13.720;2023-11-18T03:13:00;98925.75;;;4.84;80.97
34979;BME280;21185;50.978;13.720;2023-11-18T03:18:03;98922.25;;;4.85;80.76
34979;BME280;21185;50.978;13.720;2023-11-18T03:23:07;98915.47;;;4.84;80.58
34979;BME280;21185;50.978;13.720;2023-11-18T03:28:11;98922.47;;;4.82;80.48
34979;BME280;21185;50.978;13.720;2023-11-18T03:33:13;98937.19;;;4.80;80.61
34979;BME280;21185;50.978;13.720;2023-11-18T03:38:15;98938.31;;;4.76;80.63
34979;BME280;21185;50.978;13.720;2023-11-18T03:43:19;98941.84;;;4.75;80.54
34979;BME280;21185;50.978;13.720;2023-11-18T03:48:23;98944.63;;;4.72;80.23
34979;BME280;21185;50.978;13.720;2023-11-18T03:53:25;98948.84;;;4.73;80.47
34979;BME280;21185;50.978;13.720;2023-11-18T03:58:28;98942.16;;;4.70;80.35
34979;BME280;21185;50.978;13.720;2023-11-18T04:03:30;98948.13;;;4.71;80.52
34979;BME280;21185;50.978;13.720;2023-11-18T04:08:33;98949.88;;;4.70;80.10
34979;BME280;21185;50.978;13.720;2023-11-18T04:13:37;98955.22;;;4.67;80.33
34979;BME280;21185;50.978;13.720;2023-11-18T04:18:39;98953.47;;;4.68;80.09
34979;BME280;21185;50.978;13.720;2023-11-18T04:23:42;98957.47;;;4.72;80.16
34979;BME280;21185;50.978;13.720;2023-11-18T04:28:45;98964.88;;;4.76;80.17
34979;BME280;21185;50.978;13.720;2023-11-18T04:33:47;98971.31;;;4.82;80.46
34979;BME280;21185;50.978;13.720;2023-11-18T04:38:49;98974.50;;;4.85;80.17
34979;BME280;21185;50.978;13.720;2023-11-18T04:43:52;98967.81;;;4.83;79.87
34979;BME280;21185;50.978;13.720;2023-11-18T04:48:55;98965.47;;;4.80;80.11
34979;BME280;21185;50.978;13.720;2023-11-18T04:53:58;98971.53;;;4.79;80.10
34979;BME280;21185;50.978;13.720;2023-11-18T04:59:01;98979.25;;;4.79;80.22
34979;BME280;21185;50.978;13.720;2023-11-18T05:04:03;98967.00;;;4.82;80.03
34979;BME280;21185;50.978;13.720;2023-11-18T05:09:05;98971.81;;;4.87;80.24
34979;BME280;21185;50.978;13.720;2023-11-18T05:14:11;98975.44;;;4.84;80.51
34979;BME280;21185;50.978;13.720;2023-11-18T05:19:13;98977.88;;;4.86;80.25
34979;BME280;21185;50.978;13.720;2023-11-18T05:24:17;98978.81;;;4.85;80.25
34979;BME280;21185;50.978;13.720;2023-11-18T05:29:19;98987.69;;;4.81;80.33
34979;BME280;21185;50.978;13.720;2023-11-18T05:34:22;98992.94;;;4.79;80.53
34979;BME280;21185;50.978;13.720;2023-11-18T05:39:24;98986.25;;;4.77;80.54
34979;BME280;21185;50.978;13.720;2023-11-18T05:44:29;98993.75;;;4.80;80.30
34979;BME280;21185;50.978;13.720;2023-11-18T05:49:35;98982.63;;;4.79;80.68
34979;BME280;21185;50.978;13.720;2023-11-18T05:54:37;98988.59;;;4.80;80.50
34979;BME280;21185;50.978;13.720;2023-11-18T05:59:39;98988.59;;;4.80;80.70
34979;BME280;21185;50.978;13.720;2023-11-18T06:04:42;98994.56;;;4.80;80.75
34979;BME280;21185;50.978;13.720;2023-11-18T06:09:44;99007.09;;;4.85;80.64
34979;BME280;21185;50.978;13.720;2023-11-18T06:14:47;99003.59;;;4.86;80.69
34979;BME280;21185;50.978;13.720;2023-11-18T06:19:50;99007.59;;;4.90;80.55
34979;BME280;21185;50.978;13.720;2023-11-18T06:24:53;99016.13;;;4.91;80.61
34979;BME280;21185;50.978;13.720;2023-11-18T06:29:55;99023.75;;;4.92;80.89
34979;BME280;21185;50.978;13.720;2023-11-18T06:34:58;99027.84;;;4.95;80.91
34979;BME280;21185;50.978;13.720;2023-11-18T06:40:00;99019.09;;;4.97;80.56
34979;BME280;21185;50.978;13.720;2023-11-18T06:45:03;99035.44;;;4.96;81.16
34979;BME280;21185;50.978;13.720;2023-11-18T06:50:09;99031.25;;;4.95;80.74
34979;BME280;21185;50.978;13.720;2023-11-18T06:55:16;99037.31;;;4.94;80.72
34979;BME280;21185;50.978;13.720;2023-11-18T07:00:19;99029.81;;;4.91;81.01
34979;BME280;21185;50.978;13.720;2023-11-18T07:05:25;99036.91;;;4.87;80.89
34979;BME280;21185;50.978;13.720;2023-11-18T07:10:27;99040.31;;;4.88;81.26
34979;BME280;21185;50.978;13.720;2023-11-18T07:15:30;99040.41;;;4.86;81.20
34979;BME280;21185;50.978;13.720;2023-11-18T07:20:32;99050.94;;;4.83;81.09
34979;BME280;21185;50.978;13.720;2023-11-18T07:25:35;99047.09;;;4.89;81.48
34979;BME280;21185;50.978;13.720;2023-11-18T07:30:37;99057.16;;;4.92;81.16
34979;BME280;21185;50.978;13.720;2023-11-18T07:35:40;99055.31;;;4.94;81.21
34979;BME280;21185;50.978;13.720;2023-11-18T07:40:42;99059.75;;;4.92;81.34
34979;BME280;21185;50.978;13.720;2023-11-18T07:45:48;99060.25;;;4.97;81.74
34979;BME280;21185;50.978;13.720;2023-11-18T07:50:58;99066.00;;;5.01;81.83
34979;BME280;21185;50.978;13.720;2023-11-18T07:56:00;99071.63;;;5.06;81.98
34979;BME280;21185;50.978;13.720;2023-11-18T08:01:04;99079.03;;;5.10;81.90
34979;BME280;21185;50.978;13.720;2023-11-18T08:06:12;99082.00;;;5.17;82.01
34979;BME280;21185;50.978;13.720;2023-11-18T08:11:15;99087.03;;;5.18;82.12
34979;BME280;21185;50.978;13.720;2023-11-18T08:16:19;99094.63;;;5.20;81.88
34979;BME280;21185;50.978;13.720;2023-11-18T08:21:22;99093.69;;;5.21;82.09
34979;BME280;21185;50.978;13.720;2023-11-18T08:26:24;99098.72;;;5.22;82.33
34979;BME280;21185;50.978;13.720;2023-11-18T08:31:26;99108.78;;;5.26;82.34
34979;BME280;21185;50.978;13.720;2023-11-18T08:36:29;99110.22;;;5.30;82.49
34979;BME280;21185;50.978;13.720;2023-11-18T08:41:34;99107.22;;;5.36;82.15
34979;BME280;21185;50.978;13.720;2023-11-18T08:46:37;99113.06;;;5.38;82.20
34979;BME280;21185;50.978;13.720;2023-11-18T08:51:40;99113.47;;;5.44;82.10
34979;BME280;21185;50.978;13.720;2023-11-18T08:56:44;99121.47;;;5.52;82.26
34979;BME280;21185;50.978;13.720;2023-11-18T09:01:49;99127.00;;;5.59;81.90
34979;BME280;21185;50.978;13.720;2023-11-18T09:06:52;99129.47;;;5.61;81.88
34979;BME280;21185;50.978;13.720;2023-11-18T09:11:56;99136.25;;;5.62;81.36
34979;BME280;21185;50.978;13.720;2023-11-18T09:16:59;99143.41;;;5.69;81.54
34979;BME280;21185;50.978;13.720;2023-11-18T09:22:02;99141.22;;;5.76;81.53
34979;BME280;21185;50.978;13.720;2023-11-18T09:27:09;99146.53;;;5.85;81.22
34979;BME280;21185;50.978;13.720;2023-11-18T09:32:11;99147.47;;;5.84;80.97
34979;BME280;21185;50.978;13.720;2023-11-18T09:37:15;99140.91;;;5.80;80.67
34979;BME280;21185;50.978;13.720;2023-11-18T09:42:17;99127.69;;;5.85;80.31
34979;BME280;21185;50.978;13.720;2023-11-18T09:47:23;99125.19;;;5.96;80.51
34979;BME280;21185;50.978;13.720;2023-11-18T09:52:31;99118.75;;;6.02;80.03
34979;BME280;21185;50.978;13.720;2023-11-18T09:57:40;99128.63;;;6.08;79.54
34979;BME280;21185;50.978;13.720;2023-11-18T10:02:47;99126.97;;;6.07;78.99
34979;BME280;21185;50.978;13.720;2023-11-18T10:07:53;99136.56;;;6.05;78.51
34979;BME280;21185;50.978;13.720;2023-11-18T10:12:57;99128.25;;;6.01;78.01
34979;BME280;21185;50.978;13.720;2023-11-18T10:18:02;99120.28;;;6.04;77.88
34979;BME280;21185;50.978;13.720;2023-11-18T10:23:19;99123.69;;;6.05;77.68
34979;BME280;21185;50.978;13.720;2023-11-18T10:28:34;99128.16;;;6.14;77.56
34979;BME280;21185;50.978;13.720;2023-11-18T10:33:40;99120.91;;;6.19;76.22
34979;BME280;21185;50.978;13.720;2023-11-18T10:38:48;99126.53;;;6.24;75.30
34979;BME280;21185;50.978;13.720;2023-11-18T10:44:08;99126.56;;;6.35;74.64
34979;BME280;21185;50.978;13.720;2023-11-18T10:49:22;99124.22;;;6.43;74.07
34979;BME280;21185;50.978;13.720;2023-11-18T10:54:24;99117.69;;;6.50;73.16
34979;BME280;21185;50.978;13.720;2023-11-18T10:59:29;99117.09;;;6.47;71.47
34979;BME280;21185;50.978;13.720;2023-11-18T11:04:43;99112.53;;;6.50;70.09
34979;BME280;21185;50.978;13.720;2023-11-18T11:09:46;99109.47;;;6.57;69.10
34979;BME280;21185;50.978;13.720;2023-11-18T11:15:29;99110.88;;;6.61;67.99
34979;BME280;21185;50.978;13.720;2023-11-18T11:31:41;99134.41;;;6.34;65.71
34979;BME280;21185;50.978;13.720;2023-11-18T11:36:49;99128.44;;;6.33;65.87
34979;BME280;21185;50.978;13.720;2023-11-18T11:41:53;99127.28;;;6.37;65.93
34979;BME280;21185;50.978;13.720;2023-11-18T11:47:00;99120.47;;;6.36;66.20
34979;BME280;21185;50.978;13.720;2023-11-18T11:52:14;99113.69;;;6.35;65.77
34979;BME280;21185;50.978;13.720;2023-11-18T11:57:18;99104.31;;;6.34;65.72
34979;BME280;21185;50.978;13.720;2023-11-18T12:02:25;99102.19;;;6.39;66.23
34979;BME280;21185;50.978;13.720;2023-11-18T12:07:31;99090.59;;;6.45;66.66
34979;BME280;21185;50.978;13.720;2023-11-18T12:12:41;99091.78;;;6.52;66.95
34979;BME280;21185;50.978;13.720;2023-11-18T12:23:04;99076.06;;;6.77;67.50
34979;BME280;21185;50.978;13.720;2023-11-18T12:28:17;99061.19;;;6.81;68.04
34979;BME280;21185;50.978;13.720;2023-11-18T12:33:24;99066.34;;;6.81;67.94
34979;BME280;21185;50.978;13.720;2023-11-18T12:44:02;99058.47;;;6.82;68.86
34979;BME280;21185;50.978;13.720;2023-11-18T12:49:14;99062.81;;;6.82;69.15
34979;BME280;21185;50.978;13.720;2023-11-18T12:54:26;99048.16;;;6.82;69.22
34979;BME280;21185;50.978;13.720;2023-11-18T12:59:29;99043.69;;;6.85;69.38
34979;BME280;21185;50.978;13.720;2023-11-18T13:04:36;99040.06;;;6.87;69.45
34979;BME280;21185;50.978;13.720;2023-11-18T13:09:43;99040.31;;;6.84;69.15
34979;BME280;21185;50.978;13.720;2023-11-18T13:14:47;99037.13;;;6.80;69.23
34979;BME280;21185;50.978;13.720;2023-11-18T13:19:49;99039.84;;;6.79;69.53
34979;BME280;21185;50.978;13.720;2023-11-18T13:24:56;99030.34;;;6.79;69.48
34979;BME280;21185;50.978;13.720;2023-11-18T13:30:00;99036.31;;;6.80;69.67
34979;BME280;21185;50.978;13.720;2023-11-18T13:35:02;99041.59;;;6.78;69.84
34979;BME280;21185;50.978;13.720;2023-11-18T13:40:05;99042.66;;;6.76;70.07
34979;BME280;21185;50.978;13.720;2023-11-18T13:45:14;99048.28;;;6.70;69.87
34979;BME280;21185;50.978;13.720;2023-11-18T13:50:37;99042.78;;;6.63;69.95
34979;BME280;21185;50.978;13.720;2023-11-18T13:55:40;99049.22;;;6.58;69.97
34979;BME280;21185;50.978;13.720;2023-11-18T14:00:42;99044.56;;;6.52;70.21
34979;BME280;21185;50.978;13.720;2023-11-18T14:05:45;99039.50;;;6.50;70.51
34979;BME280;21185;50.978;13.720;2023-11-18T14:10:49;99038.00;;;6.47;70.40
34979;BME280;21185;50.978;13.720;2023-11-18T14:16:04;99024.41;;;6.45;70.52
34979;BME280;21185;50.978;13.720;2023-11-18T14:21:11;99037.53;;;6.42;70.74
34979;BME280;21185;50.978;13.720;2023-11-18T14:26:16;99042.22;;;6.37;70.61
34979;BME280;21185;50.978;13.720;2023-11-18T14:31:18;99023.00;;;6.30;70.74
34979;BME280;21185;50.978;13.720;2023-11-18T14:36:25;99019.47;;;6.20;71.03
34979;BME280;21185;50.978;13.720;2023-11-18T14:41:27;99013.13;;;6.13;71.14
34979;BME280;21185;50.978;13.720;2023-11-18T14:46:32;99026.47;;;6.07;71.20
34979;BME280;21185;50.978;13.720;2023-11-18T14:51:35;99013.13;;;6.02;71.31
34979;BME280;21185;50.978;13.720;2023-11-18T14:56:38;99012.53;;;5.98;71.40
34979;BME280;21185;50.978;13.720;2023-11-18T15:01:40;99001.06;;;5.91;71.51
34979;BME280;21185;50.978;13.720;2023-11-18T15:06:46;98993.03;;;5.83;71.66
34979;BME280;21185;50.978;13.720;2023-11-18T15:11:48;98997.84;;;5.76;71.71
34979;BME280;21185;50.978;13.720;2023-11-18T15:16:52;98997.34;;;5.71;71.85
34979;BME280;21185;50.978;13.720;2023-11-18T15:21:55;99007.19;;;5.66;71.83
34979;BME280;21185;50.978;13.720;2023-11-18T15:26:57;98989.59;;;5.60;71.82
34979;BME280;21185;50.978;13.720;2023-11-18T15:32:01;98984.19;;;5.52;72.00
34979;BME280;21185;50.978;13.720;2023-11-18T15:37:04;98968.50;;;5.44;71.89
34979;BME280;21185;50.978;13.720;2023-11-18T15:42:06;98955.50;;;5.34;71.99
34979;BME280;21185;50.978;13.720;2023-11-18T15:47:08;98946.56;;;5.27;72.10
34979;BME280;21185;50.978;13.720;2023-11-18T15:52:11;98943.41;;;5.24;72.06
34979;BME280;21185;50.978;13.720;2023-11-18T15:57:14;98944.81;;;5.16;72.19
34979;BME280;21185;50.978;13.720;2023-11-18T16:02:18;98945.38;;;5.09;72.17
34979;BME280;21185;50.978;13.720;2023-11-18T16:07:20;98949.22;;;5.03;72.03
34979;BME280;21185;50.978;13.720;2023-11-18T16:12:22;98945.31;;;4.98;71.93
34979;BME280;21185;50.978;13.720;2023-11-18T16:17:24;98927.66;;;4.93;72.22
34979;BME280;21185;50.978;13.720;2023-11-18T16:22:26;98906.59;;;4.88;72.20
34979;BME280;21185;50.978;13.720;2023-11-18T16:27:28;98906.94;;;4.83;71.98
34979;BME280;21185;50.978;13.720;2023-11-18T16:32:30;98896.16;;;4.78;72.26
34979;BME280;21185;50.978;13.720;2023-11-18T16:37:33;98898.94;;;4.75;72.12
34979;BME280;21185;50.978;13.720;2023-11-18T16:42:34;98906.75;;;4.74;71.99
34979;BME280;21185;50.978;13.720;2023-11-18T16:47:39;98915.63;;;4.70;72.30
34979;BME280;21185;50.978;13.720;2023-11-18T16:52:41;98891.78;;;4.68;72.23
34979;BME280;21185;50.978;13.720;2023-11-18T16:57:44;98892.59;;;4.68;72.15
34979;BME280;21185;50.978;13.720;2023-11-18T17:02:51;98904.63;;;4.68;72.07
34979;BME280;21185;50.978;13.720;2023-11-18T17:08:00;98909.56;;;4.71;72.37
34979;BME280;21185;50.978;13.720;2023-11-18T17:13:03;98886.19;;;4.74;72.24
34979;BME280;21185;50.978;13.720;2023-11-18T17:18:08;98896.47;;;4.74;72.48
34979;BME280;21185;50.978;13.720;2023-11-18T17:23:10;98878.72;;;4.71;72.92
34979;BME280;21185;50.978;13.720;2023-11-18T17:28:13;98870.19;;;4.70;72.70
34979;BME280;21185;50.978;13.720;2023-11-18T17:33:18;98877.66;;;4.73;72.81
34979;BME280;21185;50.978;13.720;2023-11-18T17:38:20;98889.47;;;4.76;73.09
34979;BME280;21185;50.978;13.720;2023-11-18T17:43:22;98883.91;;;4.82;72.97
34979;BME280;21185;50.978;13.720;2023-11-18T17:48:25;98852.44;;;4.78;73.18
34979;BME280;21185;50.978;13.720;2023-11-18T17:53:27;98839.00;;;4.75;73.24
34979;BME280;21185;50.978;13.720;2023-11-18T17:58:29;98835.72;;;4.73;73.38
34979;BME280;21185;50.978;13.720;2023-11-18T18:03:32;98841.56;;;4.75;73.61
34979;BME280;21185;50.978;13.720;2023-11-18T18:08:34;98832.09;;;4.75;73.60
34979;BME280;21185;50.978;13.720;2023-11-18T18:13:37;98825.91;;;4.78;73.65
34979;BME280;21185;50.978;13.720;2023-11-18T18:18:40;98799.88;;;4.82;73.58
34979;BME280;21185;50.978;13.720;2023-11-18T18:23:42;98800.47;;;4.86;73.83
34979;BME280;21185;50.978;13.720;2023-11-18T18:28:44;98781.19;;;4.92;73.78
34979;BME280;21185;50.978;13.720;2023-11-18T18:33:46;98779.09;;;4.97;73.89
34979;BME280;21185;50.978;13.720;2023-11-18T18:38:49;98762.63;;;4.99;73.70
34979;BME280;21185;50.978;13.720;2023-11-18T18:43:51;98764.47;;;4.97;73.72
34979;BME280;21185;50.978;13.720;2023-11-18T18:48:54;98754.19;;;4.97;74.04
34979;BME280;21185;50.978;13.720;2023-11-18T18:53:57;98746.25;;;5.00;73.84
34979;BME280;21185;50.978;13.720;2023-11-18T18:58:59;98735.72;;;5.03;74.11
34979;BME280;21185;50.978;13.720;2023-11-18T19:04:01;98730.13;;;5.09;73.84
34979;BME280;21185;50.978;13.720;2023-11-18T19:09:06;98737.38;;;5.15;73.82
34979;BME280;21185;50.978;13.720;2023-11-18T19:14:10;98723.19;;;5.21;73.77
34979;BME280;21185;50.978;13.720;2023-11-18T19:19:12;98715.13;;;5.26;73.51
34979;BME280;21185;50.978;13.720;2023-11-18T19:24:15;98717.56;;;5.27;73.94
34979;BME280;21185;50.978;13.720;2023-11-18T19:29:16;98690.78;;;5.30;74.12
34979;BME280;21185;50.978;13.720;2023-11-18T19:34:18;98707.03;;;5.30;73.99
34979;BME280;21185;50.978;13.720;2023-11-18T19:39:23;98704.47;;;5.30;73.72
34979;BME280;21185;50.978;13.720;2023-11-18T19:44:25;98694.06;;;5.32;73.88
34979;BME280;21185;50.978;13.720;2023-11-18T19:49:28;98707.97;;;5.29;74.08
34979;BME280;21185;50.978;13.720;2023-11-18T19:54:33;98684.81;;;5.29;73.92
34979;BME280;21185;50.978;13.720;2023-11-18T19:59:35;98695.00;;;5.31;73.79
34979;BME280;21185;50.978;13.720;2023-11-18T20:04:38;98694.53;;;5.37;73.97
34979;BME280;21185;50.978;13.720;2023-11-18T20:09:44;98686.22;;;5.44;73.97
34979;BME280;21185;50.978;13.720;2023-11-18T20:14:46;98657.53;;;5.49;74.06
34979;BME280;21185;50.978;13.720;2023-11-18T20:19:48;98657.28;;;5.52;74.02
34979;BME280;21185;50.978;13.720;2023-11-18T20:24:50;98648.38;;;5.56;73.91
34979;BME280;21185;50.978;13.720;2023-11-18T20:29:52;98630.25;;;5.58;73.94
34979;BME280;21185;50.978;13.720;2023-11-18T20:34:54;98640.31;;;5.61;73.61
34979;BME280;21185;50.978;13.720;2023-11-18T20:39:56;98647.91;;;5.62;73.94
34979;BME280;21185;50.978;13.720;2023-11-18T20:44:59;98642.50;;;5.65;74.15
34979;BME280;21185;50.978;13.720;2023-11-18T20:50:01;98631.16;;;5.68;73.93
34979;BME280;21185;50.978;13.720;2023-11-18T20:55:06;98624.94;;;5.70;73.95
34979;BME280;21185;50.978;13.720;2023-11-18T21:00:11;98592.41;;;5.69;73.81
34979;BME280;21185;50.978;13.720;2023-11-18T21:05:14;98614.53;;;5.72;74.02
34979;BME280;21185;50.978;13.720;2023-11-18T21:10:16;98600.59;;;5.74;73.95
34979;BME280;21185;50.978;13.720;2023-11-18T21:15:19;98573.88;;;5.75;73.88
34979;BME280;21185;50.978;13.720;2023-11-18T21:20:21;98570.75;;;5.72;73.86
34979;BME280;21185;50.978;13.720;2023-11-18T21:25:23;98560.69;;;5.69;74.06
34979;BME280;21185;50.978;13.720;2023-11-18T21:30:25;98563.97;;;5.71;73.94
34979;BME280;21185;50.978;13.720;2023-11-18T21:35:27;98568.03;;;5.73;73.91
34979;BME280;21185;50.978;13.720;2023-11-18T21:40:29;98570.50;;;5.75;74.17
34979;BME280;21185;50.978;13.720;2023-11-18T21:45:32;98555.06;;;5.75;73.92
34979;BME280;21185;50.978;13.720;2023-11-18T21:50:34;98529.56;;;5.72;74.12
34979;BME280;21185;50.978;13.720;2023-11-18T21:55:37;98524.53;;;5.70;74.27
34979;BME280;21185;50.978;13.720;2023-11-18T22:00:39;98507.19;;;5.72;74.05
34979;BME280;21185;50.978;13.720;2023-11-18T22:05:46;98504.88;;;5.69;74.13
34979;BME280;21185;50.978;13.720;2023-11-18T22:10:49;98520.44;;;5.68;74.02
34979;BME280;21185;50.978;13.720;2023-11-18T22:15:52;98494.81;;;5.66;74.24
34979;BME280;21185;50.978;13.720;2023-11-18T22:20:56;98487.91;;;5.67;74.25
34979;BME280;21185;50.978;13.720;2023-11-18T22:25:59;98489.44;;;5.69;74.24
34979;BME280;21185;50.978;13.720;2023-11-18T22:31:01;98509.78;;;5.72;74.43
34979;BME280;21185;50.978;13.720;2023-11-18T22:36:04;98501.66;;;5.77;74.69
34979;BME280;21185;50.978;13.720;2023-11-18T22:41:09;98498.72;;;5.81;74.96
34979;BME280;21185;50.978;13.720;2023-11-18T22:46:13;98483.69;;;5.86;75.00
34979;BME280;21185;50.978;13.720;2023-11-18T22:51:15;98480.91;;;5.90;75.22
34979;BME280;21185;50.978;13.720;2023-11-18T22:56:18;98467.78;;;5.93;75.05
34979;BME280;21185;50.978;13.720;2023-11-18T23:01:21;98466.81;;;5.94;75.18
34979;BME280;21185;50.978;13.720;2023-11-18T23:06:25;98449.75;;;5.93;75.32
34979;BME280;21185;50.978;13.720;2023-11-18T23:11:27;98444.13;;;5.88;75.61
34979;BME280;21185;50.978;13.720;2023-11-18T23:16:29;98452.25;;;5.83;75.76
34979;BME280;21185;50.978;13.720;2023-11-18T23:21:31;98431.34;;;5.76;75.76
34979;BME280;21185;50.978;13.720;2023-11-18T23:26:35;98419.72;;;5.61;76.23
34979;BME280;21185;50.978;13.720;2023-11-18T23:31:37;98391.50;;;5.50;76.57
34979;BME280;21185;50.978;13.720;2023-11-18T23:36:39;98370.03;;;5.40;76.99
34979;BME280;21185;50.978;13.720;2023-11-18T23:41:41;98338.56;;;5.27;77.18
34979;BME280;21185;50.978;13.720;2023-11-18T23:46:43;98329.59;;;5.21;77.46
34979;BME280;21185;50.978;13.720;2023-11-18T23:51:45;98302.63;;;5.15;77.86
34979;BME280;21185;50.978;13.720;2023-11-18T23:56:48;98281.06;;;5.07;77.80
